Anthony, Indiana
Current Conditions -  °F | °C
As of 5:53 AM on Monday 22 Dec 2014 (Local Time) from KMIE Reporting Station
Overcast Overcast  
Wind Chill: 23°   Ceiling: 4000
Heat Index: 30°   Visibility: 7mi
Dew Point: 26°   Wind: 7mph
Humidity: 85%   Direction: 130°SE
Pressure: 30"   Gusts: NA
Location:  40.2763°N, 85.3769°W
Report Text: KMIE 221053Z 13006KT 7SM OVC040 M01/M03 A3000 RMK AO2 SLP163 T10111033
Loading
Personal Weather Stations






























Interactive Weather Map New forecast layout! Learn more

10-Day Weather Forecast

Advertisements
Track Severe Weather on mobile